Time;durP1;ratioP1;P1;durP2;ratioP2;P2;SDS_P1;SDS_P2;PMS_P1;PMS_P2;Temp;Humidity;BMP_temperature;BMP_pressure;BME280_temperature;BME280_humidity;BME280_pressure;Samples;Min_cycle;Max_cycle;Signal;HPM_P1;HPM_P2
2024/01/12 00:02:04;;;;;;;7.23;2.10;;;-3.80;99.90;;;;;;5079757;28;20938;-81
2024/01/12 00:04:30;;;;;;;2.80;2.67;;;-3.90;99.90;;;;;;5080860;28;20447;-81
2024/01/12 00:06:57;;;;;;;1.80;1.67;;;-3.90;99.90;;;;;;5082505;28;20533;-81
2024/01/12 00:09:25;;;;;;;2.83;2.63;;;-3.90;99.90;;;;;;5082442;28;20475;-81
2024/01/12 00:11:51;;;;;;;4.10;3.80;;;-4.00;99.90;;;;;;5081560;28;20448;-81
2024/01/12 00:14:18;;;;;;;3.53;2.57;;;-4.00;99.90;;;;;;5081686;28;20485;-81
2024/01/12 00:16:48;;;;;;;9.00;1.90;;;-4.10;99.90;;;;;;5081694;28;20211;-81
2024/01/12 00:19:15;;;;;;;6.03;1.37;;;-4.10;99.90;;;;;;5081508;28;20472;-81
2024/01/12 00:21:43;;;;;;;4.10;1.90;;;-4.10;99.90;;;;;;5081426;28;20436;-81
2024/01/12 00:24:10;;;;;;;1.90;1.80;;;-4.20;99.90;;;;;;5081323;28;20464;-81
2024/01/12 00:26:38;;;;;;;2.57;2.33;;;-4.20;99.90;;;;;;5080360;28;20954;-81
2024/01/12 00:29:05;;;;;;;2.53;2.43;;;-4.20;99.90;;;;;;5080520;28;20427;-81
2024/01/12 00:31:33;;;;;;;5.07;4.57;;;-4.20;99.90;;;;;;5080586;28;20416;-81
2024/01/12 00:33:59;;;;;;;2.80;1.40;;;-4.30;99.90;;;;;;5081196;28;20424;-81
2024/01/12 00:36:26;;;;;;;6.00;4.03;;;-4.30;99.90;;;;;;5080079;28;20932;-81
2024/01/12 00:38:53;;;;;;;9.60;2.67;;;-4.30;99.90;;;;;;5080602;28;20435;-81
2024/01/12 00:41:19;;;;;;;3.50;3.20;;;-4.20;99.90;;;;;;5080197;28;20419;-81
2024/01/12 00:43:48;;;;;;;1.23;1.13;;;-4.30;99.90;;;;;;5080123;28;20445;-81
2024/01/12 00:46:14;;;;;;;8.40;3.03;;;-4.30;99.90;;;;;;5080800;28;20453;-81
2024/01/12 00:48:42;;;;;;;2.63;1.83;;;-4.30;99.90;;;;;;5080524;28;20979;-81
2024/01/12 00:51:11;;;;;;;4.60;3.47;;;-4.30;99.90;;;;;;5080236;28;20842;-81
2024/01/12 00:53:38;;;;;;;1.67;1.33;;;-4.30;99.90;;;;;;5079357;28;20423;-81
2024/01/12 00:56:05;;;;;;;3.07;2.33;;;-4.30;99.90;;;;;;5079839;28;20804;-82
2024/01/12 00:58:32;;;;;;;2.23;1.80;;;-4.30;99.90;;;;;;5079708;28;20435;-81
2024/01/12 01:01:00;;;;;;;1.93;1.40;;;-4.30;99.90;;;;;;5078999;28;20476;-81
2024/01/12 01:03:27;;;;;;;2.47;2.33;;;-4.30;99.90;;;;;;5079041;28;20447;-81
2024/01/12 01:05:53;;;;;;;5.73;2.70;;;-4.30;99.90;;;;;;5078918;28;20443;-81
2024/01/12 01:08:20;;;;;;;2.60;2.40;;;-4.40;99.90;;;;;;5078225;28;20512;-81
2024/01/12 01:10:47;;;;;;;4.10;3.47;;;-4.30;99.90;;;;;;5078052;28;20441;-81
2024/01/12 01:13:14;;;;;;;2.80;2.20;;;-4.40;99.90;;;;;;5077927;28;20416;-81
2024/01/12 01:15:40;;;;;;;1.80;1.70;;;-4.40;99.90;;;;;;5078382;28;20455;-81
2024/01/12 01:18:10;;;;;;;3.30;1.93;;;-4.40;99.90;;;;;;5079116;28;20825;-81
2024/01/12 01:20:37;;;;;;;2.60;1.40;;;-4.40;99.90;;;;;;5080424;28;20420;-81
2024/01/12 01:23:04;;;;;;;11.13;3.10;;;-4.40;99.90;;;;;;5091615;28;20426;-81
2024/01/12 01:25:31;;;;;;;6.73;4.00;;;-4.50;99.90;;;;;;5098744;28;20419;-80
2024/01/12 01:27:58;;;;;;;2.70;2.07;;;-4.50;99.90;;;;;;5086789;28;20457;-81
2024/01/12 01:30:24;;;;;;;4.87;3.03;;;-4.50;99.90;;;;;;5097746;28;20396;-81
2024/01/12 01:32:51;;;;;;;1.80;1.70;;;-4.50;99.90;;;;;;5099432;28;20419;-80
2024/01/12 01:35:19;;;;;;;2.73;2.50;;;-4.50;99.90;;;;;;5095252;28;20822;-81
2024/01/12 01:37:46;;;;;;;1.80;1.80;;;-4.50;99.90;;;;;;5097621;28;20427;-80
2024/01/12 01:40:13;;;;;;;3.03;2.13;;;-4.40;99.90;;;;;;5095131;28;20444;-81
2024/01/12 01:42:40;;;;;;;7.53;2.20;;;-4.40;99.90;;;;;;5088985;28;20460;-81
2024/01/12 01:45:07;;;;;;;9.63;2.20;;;-4.40;99.90;;;;;;5082227;28;20451;-81
2024/01/12 01:47:34;;;;;;;4.30;1.60;;;-4.40;99.90;;;;;;5081908;28;20419;-81
2024/01/12 01:50:01;;;;;;;5.20;2.17;;;-4.40;99.90;;;;;;5080789;28;20837;-81
2024/01/12 01:52:29;;;;;;;1.00;1.00;;;-4.50;99.90;;;;;;5081152;28;20436;-81
2024/01/12 01:54:58;;;;;;;10.43;3.63;;;-4.50;99.90;;;;;;5080812;28;20459;-82
2024/01/12 01:57:27;;;;;;;2.60;2.40;;;-4.50;99.90;;;;;;5078480;28;20419;-81
2024/01/12 01:59:54;;;;;;;3.57;2.00;;;-4.40;99.90;;;;;;5078547;28;20451;-81
2024/01/12 02:02:21;;;;;;;1.93;1.10;;;-4.50;99.90;;;;;;5078307;28;20441;-81
2024/01/12 02:04:49;;;;;;;7.53;2.77;;;-4.50;99.90;;;;;;5078336;28;20420;-81
2024/01/12 02:07:15;;;;;;;3.57;2.30;;;-4.60;99.90;;;;;;5080595;28;20496;-81
2024/01/12 02:09:43;;;;;;;7.13;2.80;;;-4.60;99.90;;;;;;5080738;28;20498;-81
2024/01/12 02:12:10;;;;;;;0.90;0.70;;;-4.60;99.90;;;;;;5080723;28;20455;-81
2024/01/12 02:14:37;;;;;;;1.70;1.60;;;-4.60;99.90;;;;;;5079401;28;20452;-81
2024/01/12 02:17:04;;;;;;;1.13;1.13;;;-4.70;99.90;;;;;;5079618;28;20786;-81
2024/01/12 02:19:31;;;;;;;1.07;1.07;;;-4.70;99.90;;;;;;5079432;28;20435;-81
2024/01/12 02:21:59;;;;;;;2.47;2.27;;;-4.70;99.90;;;;;;5078745;28;20420;-81
2024/01/12 02:24:26;;;;;;;1.47;1.37;;;-4.70;99.90;;;;;;5078698;28;20452;-81
2024/01/12 02:26:52;;;;;;;2.50;2.40;;;-4.80;99.90;;;;;;5078697;28;20433;-81
2024/01/12 02:29:20;;;;;;;1.90;0.87;;;-4.80;99.90;;;;;;5078110;28;20435;-81
2024/01/12 02:31:49;;;;;;;3.93;3.07;;;-4.70;99.90;;;;;;5078463;28;20424;-81
2024/01/12 02:34:17;;;;;;;1.87;1.73;;;-4.70;99.90;;;;;;5077546;28;20452;-81
2024/01/12 02:36:44;;;;;;;10.80;2.80;;;-4.70;99.90;;;;;;5078135;28;20492;-81
2024/01/12 02:39:12;;;;;;;6.90;2.60;;;-4.70;99.90;;;;;;5078012;28;20443;-81
2024/01/12 02:41:38;;;;;;;3.53;3.43;;;-4.60;99.90;;;;;;5077468;28;20466;-81
2024/01/12 02:44:05;;;;;;;1.83;1.73;;;-4.60;99.90;;;;;;5076841;28;20441;-81
2024/01/12 02:46:32;;;;;;;4.80;2.63;;;-4.60;99.90;;;;;;5076874;28;20447;-81
2024/01/12 02:48:59;;;;;;;3.07;2.20;;;-4.60;99.90;;;;;;5076296;28;20462;-81
2024/01/12 02:51:25;;;;;;;1.83;1.70;;;-4.70;99.90;;;;;;5079252;28;20459;-81
2024/01/12 02:53:52;;;;;;;1.30;1.30;;;-4.70;99.90;;;;;;5078437;28;20444;-81
2024/01/12 02:56:20;;;;;;;9.20;2.77;;;-4.70;99.90;;;;;;5078620;28;20479;-81
2024/01/12 02:58:47;;;;;;;0.90;0.90;;;-4.70;99.90;;;;;;5078281;28;20836;-81
2024/01/12 03:01:13;;;;;;;1.80;1.70;;;-4.60;99.90;;;;;;5080899;28;20444;-81
2024/01/12 03:03:40;;;;;;;4.33;3.90;;;-4.60;99.90;;;;;;5081766;28;20805;-81
2024/01/12 03:06:07;;;;;;;0.70;0.70;;;-4.70;99.90;;;;;;5081861;28;20430;-81
2024/01/12 03:08:34;;;;;;;1.50;1.40;;;-4.70;99.90;;;;;;5081773;28;20860;-81
2024/01/12 03:11:01;;;;;;;2.60;2.50;;;-4.70;99.90;;;;;;5081045;28;20764;-81
2024/01/12 03:13:32;;;;;;;2.30;1.57;;;-4.70;99.90;;;;;;5081573;28;20838;-81
2024/01/12 03:15:58;;;;;;;12.57;4.00;;;-4.70;99.90;;;;;;5081556;28;20447;-81
2024/01/12 03:18:25;;;;;;;3.77;3.30;;;-4.70;99.90;;;;;;5080783;28;20806;-81
2024/01/12 03:20:52;;;;;;;9.60;2.63;;;-4.70;99.90;;;;;;5080675;28;20420;-81
2024/01/12 03:23:19;;;;;;;6.60;2.97;;;-4.70;99.90;;;;;;5080537;28;20430;-81
2024/01/12 03:25:45;;;;;;;3.47;2.10;;;-4.70;99.90;;;;;;5081579;28;20442;-81
2024/01/12 03:28:12;;;;;;;1.60;1.60;;;-4.80;99.90;;;;;;5080021;28;20476;-81
2024/01/12 03:30:40;;;;;;;1.00;1.00;;;-4.80;99.90;;;;;;5079944;28;20455;-81
2024/01/12 03:33:08;;;;;;;2.23;2.13;;;-4.80;99.90;;;;;;5080106;28;20444;-81
2024/01/12 03:35:36;;;;;;;1.23;1.13;;;-4.80;99.90;;;;;;5079806;28;20996;-81
2024/01/12 03:38:02;;;;;;;8.30;3.23;;;-4.80;99.90;;;;;;5080417;28;20469;-81
2024/01/12 03:40:29;;;;;;;2.83;2.10;;;-4.80;99.90;;;;;;5079865;28;20441;-81
2024/01/12 03:42:56;;;;;;;2.87;1.27;;;-4.80;99.90;;;;;;5079417;28;20415;-81
2024/01/12 03:45:23;;;;;;;8.77;2.30;;;-4.80;99.90;;;;;;5079090;28;20440;-81
2024/01/12 03:47:51;;;;;;;10.33;2.87;;;-4.80;99.90;;;;;;5079119;28;20424;-81
2024/01/12 03:50:17;;;;;;;1.67;1.53;;;-4.80;99.90;;;;;;5078576;28;20448;-81
2024/01/12 03:52:44;;;;;;;1.23;1.13;;;-4.80;99.90;;;;;;5079345;28;20455;-81
2024/01/12 03:55:11;;;;;;;1.80;1.47;;;-4.80;99.90;;;;;;5079047;28;20415;-81
2024/01/12 03:57:37;;;;;;;1.10;1.10;;;-4.90;99.90;;;;;;5079291;28;20450;-81
2024/01/12 04:00:05;;;;;;;10.90;3.40;;;-4.80;99.90;;;;;;5079149;28;20412;-81
2024/01/12 04:02:32;;;;;;;1.20;1.20;;;-4.90;99.90;;;;;;5079738;28;20498;-81
2024/01/12 04:05:00;;;;;;;1.40;1.30;;;-4.90;99.90;;;;;;5079584;28;20418;-81
2024/01/12 04:07:27;;;;;;;3.20;2.50;;;-4.90;99.90;;;;;;5080500;28;20476;-81
2024/01/12 04:09:54;;;;;;;2.10;1.37;;;-4.90;99.90;;;;;;5083534;28;20446;-81
2024/01/12 04:12:20;;;;;;;1.27;1.17;;;-5.00;99.90;;;;;;5082297;28;20419;-81
2024/01/12 04:14:47;;;;;;;1.13;1.13;;;-5.00;99.90;;;;;;5082296;28;20412;-81
2024/01/12 04:17:14;;;;;;;1.03;1.03;;;-5.10;99.90;;;;;;5083056;28;20459;-81
2024/01/12 04:19:41;;;;;;;3.40;3.10;;;-5.10;99.90;;;;;;5083926;28;20443;-82
2024/01/12 04:22:09;;;;;;;2.87;1.80;;;-5.10;99.90;;;;;;5084718;28;20809;-81
2024/01/12 04:24:35;;;;;;;2.10;2.00;;;-5.10;99.90;;;;;;5084219;28;20950;-81
2024/01/12 04:27:03;;;;;;;1.33;1.23;;;-5.10;99.90;;;;;;5081060;28;20447;-81
2024/01/12 04:29:29;;;;;;;1.53;1.43;;;-4.70;99.90;;;;;;5081103;28;20448;-81
2024/01/12 04:31:56;;;;;;;4.90;2.23;;;-5.10;99.90;;;;;;5080440;28;20952;-81
2024/01/12 04:34:23;;;;;;;1.53;1.00;;;-5.00;99.90;;;;;;5080397;28;20452;-81
2024/01/12 04:36:49;;;;;;;2.03;1.60;;;-5.10;99.90;;;;;;5079851;28;20481;-81
2024/01/12 04:39:18;;;;;;;1.60;1.07;;;-5.10;99.90;;;;;;5079934;28;20468;-81
2024/01/12 04:41:45;;;;;;;0.90;0.90;;;-5.10;99.90;;;;;;5080092;28;20422;-81
2024/01/12 04:44:12;;;;;;;0.97;0.97;;;-5.10;99.90;;;;;;5079645;28;20942;-81
2024/01/12 04:46:38;;;;;;;5.00;2.73;;;-5.10;99.90;;;;;;5079730;28;20416;-81
2024/01/12 04:49:05;;;;;;;1.67;1.60;;;-5.10;99.90;;;;;;5079001;28;20439;-81
2024/01/12 04:51:32;;;;;;;1.40;1.20;;;-5.10;99.90;;;;;;5079601;28;20453;-81
2024/01/12 04:53:58;;;;;;;1.40;1.13;;;-5.10;99.90;;;;;;5079785;28;20425;-81
2024/01/12 04:56:26;;;;;;;1.53;1.47;;;-5.10;99.90;;;;;;5079567;28;20481;-81
2024/01/12 04:58:53;;;;;;;1.77;1.67;;;-4.90;99.90;;;;;;5079644;28;20835;-81
2024/01/12 05:01:21;;;;;;;2.73;1.57;;;-4.90;99.90;;;;;;5080114;28;20447;-81
2024/01/12 05:03:48;;;;;;;3.50;1.33;;;-5.00;99.90;;;;;;5079774;28;20416;-81
2024/01/12 05:06:14;;;;;;;4.67;4.37;;;-5.00;99.90;;;;;;5079306;28;20440;-81
2024/01/12 05:08:41;;;;;;;0.53;0.53;;;-5.00;99.90;;;;;;5080255;28;20427;-81
2024/01/12 05:11:08;;;;;;;3.40;1.17;;;-5.00;99.90;;;;;;5080532;28;20424;-81
2024/01/12 05:13:36;;;;;;;10.50;1.60;;;-5.00;99.90;;;;;;5079852;28;20499;-80
2024/01/12 05:16:03;;;;;;;0.50;0.50;;;-5.00;99.90;;;;;;5080178;28;20485;-81
2024/01/12 05:18:29;;;;;;;3.97;3.70;;;-5.00;99.90;;;;;;5079990;28;20516;-81
2024/01/12 05:20:56;;;;;;;8.27;3.20;;;-5.10;99.90;;;;;;5079842;28;20814;-81
2024/01/12 05:23:23;;;;;;;2.73;2.27;;;-5.10;99.90;;;;;;5079006;28;20510;-81
2024/01/12 05:25:49;;;;;;;0.80;0.80;;;-5.10;99.90;;;;;;5079384;28;20449;-81
2024/01/12 05:28:16;;;;;;;1.07;1.07;;;-5.10;99.90;;;;;;5079465;28;20469;-81
2024/01/12 05:30:44;;;;;;;0.97;0.97;;;-5.10;99.90;;;;;;5078924;28;20921;-81
2024/01/12 05:33:11;;;;;;;4.20;3.07;;;-5.10;99.90;;;;;;5078779;28;20852;-81
2024/01/12 05:35:38;;;;;;;1.73;1.43;;;-5.10;99.90;;;;;;5078625;28;20449;-81
2024/01/12 05:38:05;;;;;;;1.37;1.17;;;-5.10;99.90;;;;;;5077957;28;20428;-82
2024/01/12 05:40:31;;;;;;;5.60;2.20;;;-5.10;99.90;;;;;;5077341;28;20419;-81
2024/01/12 05:42:58;;;;;;;6.87;2.43;;;-5.10;99.90;;;;;;5076939;28;20972;-81
2024/01/12 05:45:25;;;;;;;1.80;1.70;;;-5.10;99.90;;;;;;5077367;28;20420;-81
2024/01/12 05:47:53;;;;;;;1.07;1.07;;;-5.20;99.90;;;;;;5077316;28;20912;-81
2024/01/12 05:50:20;;;;;;;2.20;2.10;;;-5.20;99.90;;;;;;5077621;28;20419;-81
2024/01/12 05:52:47;;;;;;;1.93;1.83;;;-5.30;99.90;;;;;;5077277;28;20429;-81
2024/01/12 05:55:14;;;;;;;2.10;2.00;;;-5.30;99.90;;;;;;5077052;28;20441;-81
2024/01/12 05:57:41;;;;;;;1.87;1.03;;;-5.30;99.90;;;;;;5077169;28;20454;-81
2024/01/12 06:00:09;;;;;;;2.20;1.63;;;-5.30;99.90;;;;;;5076663;28;20415;-81
2024/01/12 06:02:36;;;;;;;1.40;1.30;;;-5.30;99.90;;;;;;5076865;28;20447;-81
2024/01/12 06:05:04;;;;;;;5.20;3.10;;;-5.30;99.90;;;;;;5076593;28;20449;-81
2024/01/12 06:07:31;;;;;;;3.20;2.27;;;-5.30;99.90;;;;;;5079960;28;20841;-81
2024/01/12 06:09:58;;;;;;;1.13;1.03;;;-5.30;99.90;;;;;;5080499;28;20443;-81
2024/01/12 06:12:24;;;;;;;3.80;1.57;;;-5.30;99.90;;;;;;5080235;28;20442;-81
2024/01/12 06:14:51;;;;;;;1.53;1.43;;;-5.30;99.90;;;;;;5079420;28;20489;-81
2024/01/12 06:17:18;;;;;;;6.60;2.60;;;-5.30;99.90;;;;;;5079439;28;20877;-81
2024/01/12 06:19:45;;;;;;;3.50;2.30;;;-5.30;99.90;;;;;;5079467;28;20436;-81
2024/01/12 06:22:13;;;;;;;3.13;2.43;;;-5.20;99.90;;;;;;5078653;28;20440;-81
2024/01/12 06:24:39;;;;;;;1.30;1.30;;;-5.30;99.90;;;;;;5078859;28;20440;-81
2024/01/12 06:27:06;;;;;;;3.33;2.20;;;-5.30;99.90;;;;;;5078744;28;20420;-81
2024/01/12 06:29:34;;;;;;;7.73;3.20;;;-5.30;99.90;;;;;;5078366;28;20457;-81
2024/01/12 06:32:02;;;;;;;4.70;1.90;;;-5.30;99.90;;;;;;5078126;28;20419;-81
2024/01/12 06:34:29;;;;;;;2.03;1.93;;;-5.30;99.90;;;;;;5077245;28;20433;-81
2024/01/12 06:36:56;;;;;;;2.23;1.80;;;-5.20;99.90;;;;;;5076872;28;20459;-81
2024/01/12 06:39:24;;;;;;;1.93;1.80;;;-5.30;99.90;;;;;;5077254;28;20461;-81
2024/01/12 06:41:52;;;;;;;2.87;1.70;;;-5.20;99.90;;;;;;5076502;28;20452;-81
2024/01/12 06:44:19;;;;;;;11.87;2.30;;;-5.10;99.90;;;;;;5076331;28;20449;-81
2024/01/12 06:46:46;;;;;;;18.67;4.53;;;-5.10;99.90;;;;;;5076310;28;20953;-81
2024/01/12 06:49:12;;;;;;;2.43;2.23;;;-5.10;99.90;;;;;;5076598;28;20489;-81
2024/01/12 06:51:39;;;;;;;2.03;1.93;;;-5.10;99.90;;;;;;5079002;28;20427;-82
2024/01/12 06:54:06;;;;;;;13.00;3.07;;;-5.10;99.90;;;;;;5078956;28;20434;-81
2024/01/12 06:56:37;;;;;;;3.97;3.67;;;-5.10;99.90;;;;;;5076659;28;20488;-81
2024/01/12 06:59:04;;;;;;;1.63;1.60;;;-5.20;99.90;;;;;;5076636;28;20508;-81
2024/01/12 07:01:31;;;;;;;3.70;1.40;;;-5.30;99.90;;;;;;5076544;28;20449;-81
2024/01/12 07:03:58;;;;;;;3.47;2.90;;;-5.30;99.90;;;;;;5077010;28;20471;-81
2024/01/12 07:06:25;;;;;;;0.93;0.93;;;-5.30;99.90;;;;;;5076235;28;20446;-81
2024/01/12 07:08:52;;;;;;;1.73;1.67;;;-5.30;99.90;;;;;;5076271;28;20496;-81
2024/01/12 07:11:19;;;;;;;0.80;0.80;;;-5.30;99.90;;;;;;5076611;28;20511;-81
2024/01/12 07:13:47;;;;;;;1.97;1.87;;;-5.30;99.90;;;;;;5076792;28;20422;-81
2024/01/12 07:16:14;;;;;;;7.50;2.40;;;-5.30;99.90;;;;;;5076279;28;20431;-81
2024/01/12 07:18:42;;;;;;;14.30;1.83;;;-5.30;99.90;;;;;;5076279;28;20427;-81
2024/01/12 07:21:09;;;;;;;0.50;0.50;;;-5.30;99.90;;;;;;5076066;28;20906;-81
2024/01/12 07:23:35;;;;;;;10.23;2.33;;;-5.40;99.90;;;;;;5075902;28;20429;-81
2024/01/12 07:26:02;;;;;;;2.47;1.43;;;-5.40;99.90;;;;;;5077220;28;20826;-81
2024/01/12 07:28:29;;;;;;;2.30;2.10;;;-5.40;99.90;;;;;;5078682;28;20439;-81
2024/01/12 07:30:57;;;;;;;4.13;2.70;;;-5.40;99.90;;;;;;5083345;28;20424;-82
2024/01/12 07:33:24;;;;;;;5.30;2.23;;;-5.30;99.90;;;;;;5087787;28;20446;-81
2024/01/12 07:35:50;;;;;;;2.43;2.27;;;-5.30;99.90;;;;;;5088006;28;20435;-82
2024/01/12 07:38:18;;;;;;;2.00;1.00;;;-5.30;99.90;;;;;;5084522;28;20466;-82
2024/01/12 07:40:45;;;;;;;1.80;1.40;;;-5.30;99.90;;;;;;5081345;28;20468;-81
2024/01/12 07:43:11;;;;;;;1.10;1.10;;;-5.30;99.90;;;;;;5077986;28;20485;-81
2024/01/12 07:45:38;;;;;;;2.83;1.80;;;-5.30;99.90;;;;;;5075719;28;20415;-83
2024/01/12 07:48:07;;;;;;;0.87;0.87;;;-5.20;99.90;;;;;;5079527;28;20471;-81
2024/01/12 07:50:34;;;;;;;4.47;1.93;;;-5.20;99.90;;;;;;5085437;28;20950;-81
2024/01/12 07:53:01;;;;;;;13.90;4.17;;;-5.10;99.90;;;;;;5083068;28;20420;-81
2024/01/12 07:55:28;;;;;;;2.10;1.20;;;-5.10;99.90;;;;;;5082892;28;20421;-82
2024/01/12 07:57:55;;;;;;;0.87;0.87;;;-5.10;99.90;;;;;;5092174;28;20524;-82
2024/01/12 08:00:22;;;;;;;3.17;2.80;;;-5.10;99.90;;;;;;5096526;28;20422;-81
2024/01/12 08:02:51;;;;;;;2.70;2.50;;;-5.10;99.90;;;;;;5097270;28;20404;-81
2024/01/12 08:05:19;;;;;;;0.90;0.70;;;-5.00;99.90;;;;;;5097165;28;20426;-81
2024/01/12 08:07:46;;;;;;;0.60;0.60;;;-4.90;99.90;;;;;;5098240;28;20446;-81
2024/01/12 08:10:13;;;;;;;1.63;1.53;;;-5.00;99.90;;;;;;5088621;28;20420;-81
2024/01/12 08:12:40;;;;;;;6.00;1.30;;;-4.90;99.90;;;;;;5086808;28;20788;-81
2024/01/12 08:15:09;;;;;;;6.93;3.57;;;-4.80;99.90;;;;;;5084500;28;20495;-81
2024/01/12 08:17:37;;;;;;;1.77;1.67;;;-4.80;99.90;;;;;;5084000;28;20546;-81
2024/01/12 08:20:04;;;;;;;2.53;2.43;;;-4.80;99.90;;;;;;5084797;28;20426;-81
2024/01/12 08:22:32;;;;;;;2.63;2.50;;;-4.80;99.90;;;;;;5083814;28;20452;-81
2024/01/12 08:24:59;;;;;;;3.37;2.50;;;-4.80;99.90;;;;;;5083484;28;20423;-81
2024/01/12 08:27:26;;;;;;;1.40;1.30;;;-4.70;99.90;;;;;;5081851;28;20437;-81
2024/01/12 08:29:53;;;;;;;0.90;0.90;;;-4.70;99.90;;;;;;5081824;28;20494;-81
2024/01/12 08:32:20;;;;;;;1.73;1.07;;;-4.60;99.90;;;;;;5080635;28;20441;-81
2024/01/12 08:34:48;;;;;;;3.93;1.37;;;-4.60;99.90;;;;;;5079715;28;20426;-81
2024/01/12 08:37:15;;;;;;;1.90;1.80;;;-4.50;99.90;;;;;;5080892;28;20455;-81
2024/01/12 08:39:43;;;;;;;4.13;2.80;;;-4.50;99.90;;;;;;5080213;28;20470;-81
2024/01/12 08:42:09;;;;;;;6.57;2.63;;;-4.40;99.90;;;;;;5079396;28;20415;-81
2024/01/12 08:44:36;;;;;;;6.03;3.30;;;-4.30;99.90;;;;;;5079324;28;20441;-81
2024/01/12 08:47:03;;;;;;;2.93;2.37;;;-4.30;99.90;;;;;;5078680;28;20411;-81
2024/01/12 08:49:30;;;;;;;2.27;2.17;;;-4.20;99.90;;;;;;5079399;28;20468;-81
2024/01/12 08:51:57;;;;;;;2.10;2.00;;;-4.10;99.90;;;;;;5079385;28;20456;-81
2024/01/12 08:54:24;;;;;;;2.20;2.03;;;-4.00;99.90;;;;;;5081516;28;20448;-81
2024/01/12 08:56:52;;;;;;;6.00;2.70;;;-4.00;99.90;;;;;;5080016;28;20954;-81
2024/01/12 08:59:20;;;;;;;7.13;4.63;;;-3.90;99.90;;;;;;5078579;28;20955;-81
2024/01/12 09:01:47;;;;;;;4.80;1.83;;;-3.90;99.90;;;;;;5078646;28;20467;-81
2024/01/12 09:04:14;;;;;;;16.37;3.23;;;-3.80;99.90;;;;;;5079054;28;20418;-81
2024/01/12 09:06:40;;;;;;;2.93;1.93;;;-3.70;99.90;;;;;;5079506;28;20472;-81
2024/01/12 09:09:07;;;;;;;5.43;1.83;;;-3.70;99.90;;;;;;5080915;28;20840;-81
2024/01/12 09:11:34;;;;;;;1.03;1.03;;;-3.60;99.90;;;;;;5078276;28;20938;-81
2024/01/12 09:14:03;;;;;;;3.53;3.20;;;-3.60;99.90;;;;;;5079010;28;20419;-81
2024/01/12 09:16:29;;;;;;;2.70;2.23;;;-3.50;99.90;;;;;;5078999;28;20457;-81
2024/01/12 09:18:56;;;;;;;1.63;1.53;;;-3.40;99.90;;;;;;5079086;28;20799;-81
2024/01/12 09:21:24;;;;;;;4.93;2.40;;;-3.30;99.90;;;;;;5077443;28;20444;-81
2024/01/12 09:23:51;;;;;;;4.10;2.70;;;-3.30;99.90;;;;;;5078044;28;20832;-81
2024/01/12 09:26:18;;;;;;;3.37;2.10;;;-3.10;99.90;;;;;;5078194;28;20420;-81
2024/01/12 09:28:45;;;;;;;3.00;2.60;;;-3.00;99.90;;;;;;5077955;28;20973;-81
2024/01/12 09:31:13;;;;;;;1.80;1.70;;;-2.70;99.90;;;;;;5078553;28;20478;-81
2024/01/12 09:33:39;;;;;;;2.63;2.43;;;-2.20;99.90;;;;;;5077062;28;20444;-80
2024/01/12 09:36:07;;;;;;;3.33;3.03;;;-1.50;99.90;;;;;;5077650;28;20440;-81
2024/01/12 09:38:34;;;;;;;2.53;2.30;;;-0.70;99.90;;;;;;5077086;28;20488;-81
2024/01/12 09:41:02;;;;;;;4.37;4.03;;;0.00;99.90;;;;;;5076675;28;20436;-81
2024/01/12 09:43:30;;;;;;;3.43;2.60;;;0.70;99.90;;;;;;5076908;28;20942;-81
2024/01/12 09:46:00;;;;;;;5.97;4.23;;;1.30;99.90;;;;;;5084756;28;20460;-81
2024/01/12 09:48:29;;;;;;;5.13;3.07;;;1.70;99.90;;;;;;5076399;28;20456;-81
2024/01/12 09:50:57;;;;;;;2.60;2.40;;;2.00;99.90;;;;;;5077090;28;20433;-81
2024/01/12 09:53:24;;;;;;;9.77;3.07;;;2.20;99.90;;;;;;5076055;28;20448;-81
2024/01/12 09:55:51;;;;;;;8.27;3.17;;;2.40;99.90;;;;;;5076057;28;20448;-81
2024/01/12 09:58:18;;;;;;;14.33;6.83;;;2.70;99.90;;;;;;5075582;28;20492;-81
2024/01/12 10:00:48;;;;;;;13.87;5.77;;;3.20;99.90;;;;;;5076933;28;20946;-81
2024/01/12 10:03:17;;;;;;;14.17;5.40;;;3.80;99.90;;;;;;5084492;28;20429;-82
2024/01/12 10:05:46;;;;;;;9.33;6.43;;;4.60;99.90;;;;;;5093917;28;20787;-81
2024/01/12 10:08:13;;;;;;;12.63;5.33;;;5.70;99.90;;;;;;5085432;28;21114;-81
2024/01/12 10:10:40;;;;;;;13.03;6.10;;;6.70;99.90;;;;;;5080479;28;20452;-81
2024/01/12 10:13:06;;;;;;;10.77;4.67;;;7.60;99.90;;;;;;5076109;28;20444;-81
2024/01/12 10:15:39;;;;;;;13.13;6.90;;;8.50;99.90;;;;;;5079700;28;20445;-82
2024/01/12 10:18:06;;;;;;;13.63;7.77;;;9.00;99.80;;;;;;5080521;28;20577;-82
2024/01/12 10:20:36;;;;;;;17.87;6.97;;;8.90;98.60;;;;;;5080411;28;20445;-82
2024/01/12 10:23:05;;;;;;;9.40;5.63;;;8.20;97.90;;;;;;5080055;28;20441;-82
2024/01/12 10:25:31;;;;;;;9.60;6.67;;;7.40;98.40;;;;;;5079162;28;20864;-82
2024/01/12 10:27:59;;;;;;;19.80;5.97;;;6.40;99.30;;;;;;5079048;28;20484;-81
2024/01/12 10:30:25;;;;;;;13.30;4.47;;;5.50;99.90;;;;;;5074933;28;20452;-81
2024/01/12 10:32:53;;;;;;;13.20;6.50;;;4.70;99.90;;;;;;5080816;28;20441;-81
2024/01/12 10:35:21;;;;;;;12.07;6.70;;;4.10;99.90;;;;;;5075679;28;20444;-82
2024/01/12 10:37:48;;;;;;;11.93;5.30;;;3.40;99.90;;;;;;5075098;28;20527;-81
2024/01/12 10:40:17;;;;;;;18.27;7.93;;;2.90;99.90;;;;;;5075292;28;20504;-81
2024/01/12 10:42:48;;;;;;;10.10;4.97;;;2.50;99.90;;;;;;5075172;28;20445;-81
2024/01/12 10:45:21;;;;;;;11.17;5.10;;;2.20;99.90;;;;;;5077968;28;20437;-81
2024/01/12 10:48:00;;;;;;;13.00;6.83;;;1.90;99.90;;;;;;5077650;28;20425;-81
2024/01/12 10:50:26;;;;;;;22.77;4.03;;;1.80;99.90;;;;;;5076986;28;21020;-80
2024/01/12 10:53:05;;;;;;;10.77;5.20;;;1.70;99.90;;;;;;5075805;28;20449;-80
2024/01/12 10:55:35;;;;;;;13.90;5.00;;;1.50;99.90;;;;;;5075684;28;20432;-81
2024/01/12 10:58:03;;;;;;;7.33;4.47;;;1.30;99.90;;;;;;5075748;28;20481;-81
2024/01/12 11:00:31;;;;;;;16.97;5.50;;;1.30;99.90;;;;;;5076222;28;20444;-81
2024/01/12 11:03:00;;;;;;;10.37;4.43;;;1.20;99.90;;;;;;5074939;28;20942;-82
2024/01/12 11:05:28;;;;;;;6.17;3.50;;;1.10;99.90;;;;;;5075046;28;20456;-81
2024/01/12 11:07:58;;;;;;;11.23;3.67;;;1.10;99.90;;;;;;5074716;28;22214;-81
2024/01/12 11:10:26;;;;;;;14.93;4.43;;;1.00;99.90;;;;;;5074211;28;20471;-81
2024/01/12 11:12:55;;;;;;;5.17;3.40;;;0.90;99.90;;;;;;5074537;28;20452;-81
2024/01/12 11:15:23;;;;;;;7.07;2.77;;;0.90;99.90;;;;;;5074574;28;20491;-81
2024/01/12 11:17:50;;;;;;;14.60;5.10;;;0.80;99.90;;;;;;5074331;28;20476;-80
2024/01/12 11:20:19;;;;;;;4.30;3.80;;;0.80;99.90;;;;;;5074378;28;20965;-81
2024/01/12 11:22:48;;;;;;;12.77;2.27;;;0.80;99.90;;;;;;5078116;28;20448;-81
2024/01/12 11:25:16;;;;;;;8.07;5.90;;;0.80;99.90;;;;;;5077996;28;20934;-81
2024/01/12 11:27:47;;;;;;;16.00;4.87;;;0.80;99.90;;;;;;5078034;28;20459;-81
2024/01/12 11:30:17;;;;;;;7.90;4.17;;;0.80;99.90;;;;;;5078470;28;20429;-81
2024/01/12 11:32:44;;;;;;;8.83;4.67;;;0.90;99.90;;;;;;5081146;28;20441;-81
2024/01/12 11:35:13;;;;;;;7.77;4.90;;;0.90;99.90;;;;;;5078146;28;20448;-81
2024/01/12 11:37:40;;;;;;;10.03;4.43;;;0.90;99.90;;;;;;5078199;28;20448;-81
2024/01/12 11:40:09;;;;;;;8.80;4.60;;;0.90;99.90;;;;;;5078363;28;20448;-80
2024/01/12 11:42:37;;;;;;;39.50;5.60;;;0.90;99.90;;;;;;5077707;28;20949;-80
2024/01/12 11:45:09;;;;;;;12.80;5.10;;;0.90;99.90;;;;;;5078059;28;20410;-81
2024/01/12 11:47:38;;;;;;;8.90;4.70;;;1.00;99.90;;;;;;5077956;28;20535;-80
2024/01/12 11:50:05;;;;;;;14.07;2.83;;;1.00;99.90;;;;;;5077682;28;20528;-80
2024/01/12 11:52:32;;;;;;;9.93;3.43;;;0.90;99.90;;;;;;5077961;28;20448;-80
2024/01/12 11:54:59;;;;;;;7.50;4.43;;;0.90;99.90;;;;;;5077849;28;20447;-80
2024/01/12 11:57:26;;;;;;;12.87;4.90;;;0.90;99.90;;;;;;5077396;28;20441;-80
2024/01/12 11:59:55;;;;;;;6.17;3.93;;;0.90;99.90;;;;;;5077787;28;20488;-80
2024/01/12 12:02:23;;;;;;;7.10;4.00;;;1.10;99.90;;;;;;5077694;28;20861;-80
2024/01/12 12:04:53;;;;;;;7.00;4.10;;;0.80;99.90;;;;;;5077463;28;20535;-80
2024/01/12 12:07:25;;;;;;;8.97;4.20;;;0.70;99.90;;;;;;5076736;28;20853;-80
2024/01/12 12:09:51;;;;;;;7.03;4.43;;;0.70;99.90;;;;;;5098614;28;20463;-80
2024/01/12 12:12:18;;;;;;;4.47;4.07;;;0.70;99.90;;;;;;5076757;28;20452;-80
2024/01/12 12:14:56;;;;;;;8.57;3.60;;;0.60;99.90;;;;;;5076327;28;20455;-80
2024/01/12 12:17:23;;;;;;;7.50;3.20;;;0.60;99.90;;;;;;5076642;28;20422;-80
2024/01/12 12:19:51;;;;;;;8.87;3.93;;;0.60;99.90;;;;;;5076314;28;20491;-80
2024/01/12 12:22:18;;;;;;;4.27;3.87;;;0.50;99.90;;;;;;5076294;28;20445;-80
2024/01/12 12:24:45;;;;;;;3.53;3.07;;;0.60;99.90;;;;;;5076604;28;20520;-80
2024/01/12 12:27:11;;;;;;;12.33;5.60;;;0.50;99.90;;;;;;5076379;28;20444;-80
2024/01/12 12:29:40;;;;;;;7.87;3.27;;;0.50;99.90;;;;;;5076809;28;20483;-80
2024/01/12 12:32:11;;;;;;;5.10;3.40;;;0.40;99.90;;;;;;5075664;28;20946;-80
2024/01/12 12:34:39;;;;;;;4.83;3.77;;;0.40;99.90;;;;;;5076164;28;20526;-81
2024/01/12 12:37:08;;;;;;;7.60;3.90;;;0.40;99.90;;;;;;5077021;28;20441;-81
2024/01/12 12:39:36;;;;;;;8.30;3.80;;;0.30;99.90;;;;;;5100899;28;20534;-81
2024/01/12 12:42:03;;;;;;;7.10;4.30;;;0.30;99.90;;;;;;5097719;28;20453;-81
2024/01/12 12:44:31;;;;;;;8.73;3.07;;;0.30;99.90;;;;;;5091544;28;20444;-81
2024/01/12 12:46:58;;;;;;;8.20;3.53;;;0.20;99.90;;;;;;5083623;28;20457;-81
2024/01/12 12:49:31;;;;;;;8.00;4.80;;;0.30;99.90;;;;;;5078968;28;20461;-81